Time;durP1;ratioP1;P1;durP2;ratioP2;P2;SDS_P1;SDS_P2;PMS_P1;PMS_P2;Temp;Humidity;BMP_temperature;BMP_pressure;BME280_temperature;BME280_humidity;BME280_pressure;Samples;Min_cycle;Max_cycle;Signal;HPM_P1;HPM_P2
2023/08/06 00:00:05;;;;;;;10.07;7.07;;;;;;;24.62;51.86;100066.19;5073495;28;20358;-64
2023/08/06 00:02:32;;;;;;;11.00;6.63;;;;;;;24.71;51.87;100061.31;5073561;28;20032;-63
2023/08/06 00:04:58;;;;;;;12.73;6.78;;;;;;;24.68;52.36;100069.97;5091673;28;20027;-63
2023/08/06 00:07:23;;;;;;;8.82;6.65;;;;;;;24.60;52.05;100062.84;5087524;28;20035;-64
2023/08/06 00:09:49;;;;;;;11.88;6.90;;;;;;;24.63;52.28;100067.88;5092628;28;20067;-64
2023/08/06 00:12:14;;;;;;;8.77;7.18;;;;;;;24.61;51.97;100073.56;5091060;28;20093;-63
2023/08/06 00:14:40;;;;;;;10.32;6.65;;;;;;;24.57;51.96;100064.09;5091495;28;20378;-63
2023/08/06 00:17:06;;;;;;;10.85;6.10;;;;;;;24.54;52.34;100064.50;5091385;28;20403;-63
2023/08/06 00:19:32;;;;;;;8.48;5.60;;;;;;;24.55;52.16;100079.03;5091806;28;20107;-63
2023/08/06 00:21:57;;;;;;;11.15;6.30;;;;;;;24.54;52.00;100066.38;5091911;28;20480;-63
2023/08/06 00:24:23;;;;;;;10.55;6.50;;;;;;;24.52;52.22;100061.97;5074244;28;20106;-62
2023/08/06 00:26:49;;;;;;;10.73;5.80;;;;;;;24.48;51.85;100070.81;5076077;28;20025;-63
2023/08/06 00:29:14;;;;;;;11.20;5.85;;;;;;;24.49;52.22;100069.78;5055348;28;20024;-62
2023/08/06 00:31:40;;;;;;;10.43;6.07;;;;;;;24.52;52.44;100072.09;5071713;28;20120;-62
2023/08/06 00:34:05;;;;;;;8.82;5.63;;;;;;;24.34;52.40;100046.19;5037466;28;20044;-63
2023/08/06 00:36:31;;;;;;;8.85;6.22;;;;;;;24.42;52.36;100066.16;5054736;28;20079;-63
2023/08/06 00:38:56;;;;;;;14.60;5.85;;;;;;;24.44;52.46;100073.13;5057927;28;20032;-63
2023/08/06 00:41:22;;;;;;;11.05;6.07;;;;;;;24.45;52.35;100077.56;5092242;28;20056;-63
2023/08/06 00:43:47;;;;;;;11.90;5.72;;;;;;;24.41;52.80;100069.97;5091753;28;20028;-63
2023/08/06 00:46:13;;;;;;;9.45;6.10;;;;;;;24.40;52.72;100079.22;5088961;28;20035;-63
2023/08/06 00:48:40;;;;;;;7.65;5.68;;;;;;;24.20;52.73;100059.00;5074266;28;20028;-63
2023/08/06 00:51:06;;;;;;;10.27;6.25;;;;;;;24.31;52.74;100071.22;5091952;28;20028;-63
2023/08/06 00:53:32;;;;;;;10.52;5.95;;;;;;;24.25;53.19;100065.75;5090894;28;20030;-63
2023/08/06 00:55:58;;;;;;;12.98;6.95;;;;;;;24.07;53.08;100045.28;5089335;28;20028;-64
2023/08/06 00:58:24;;;;;;;12.30;7.38;;;;;;;24.23;53.64;100066.78;5095017;28;20046;-67
2023/08/06 01:00:50;;;;;;;12.23;6.88;;;;;;;24.23;53.18;100075.00;5094966;28;20063;-62
2023/08/06 01:03:15;;;;;;;12.20;6.90;;;;;;;24.18;53.75;100088.47;5095239;28;20173;-62
2023/08/06 01:05:41;;;;;;;15.55;7.47;;;;;;;24.16;53.70;100082.38;5077809;28;20120;-64
2023/08/06 01:08:13;;;;;;;13.40;7.72;;;;;;;24.22;53.63;100091.59;5095386;28;20470;-65
2023/08/06 01:10:51;;;;;;;16.75;7.60;;;;;;;24.06;53.75;100065.50;5095108;28;20054;-63
2023/08/06 01:13:49;;;;;;;19.05;9.38;;;;;;;24.05;53.90;100066.53;5094970;28;20036;-63
2023/08/06 01:16:20;;;;;;;13.57;8.15;;;;;;;24.17;53.89;100095.00;5095506;28;20180;-63
2023/08/06 01:18:49;;;;;;;17.20;8.07;;;;;;;24.13;54.14;100096.47;5094530;28;20036;-63
2023/08/06 01:21:18;;;;;;;12.00;8.15;;;;;;;24.15;53.73;100094.34;5077093;28;20036;-63
2023/08/06 01:23:46;;;;;;;14.00;8.20;;;;;;;24.08;53.95;100094.34;5094841;28;20032;-63
2023/08/06 01:26:32;;;;;;;18.27;8.07;;;;;;;24.12;54.26;100094.78;5076881;28;20409;-63
2023/08/06 01:29:10;;;;;;;18.98;8.43;;;;;;;24.16;54.04;100090.56;5078068;28;20036;-64
2023/08/06 01:31:38;;;;;;;14.63;8.10;;;;;;;24.04;54.19;100097.69;5094470;28;20044;-63
2023/08/06 01:34:09;;;;;;;11.88;7.68;;;;;;;24.03;54.17;100096.00;5094863;28;20035;-62
2023/08/06 01:36:36;;;;;;;18.80;8.23;;;;;;;24.04;54.61;100092.22;5093984;28;20470;-64
2023/08/06 01:39:01;;;;;;;13.93;8.20;;;;;;;24.02;54.29;100094.31;5094658;28;20055;-63
2023/08/06 01:41:27;;;;;;;13.75;7.63;;;;;;;23.97;54.52;100097.63;5093989;28;20166;-66
2023/08/06 01:43:52;;;;;;;13.05;7.78;;;;;;;23.96;54.76;100093.19;5093767;28;20081;-65
2023/08/06 01:46:18;;;;;;;14.32;8.05;;;;;;;23.93;54.83;100091.75;5094130;28;20043;-63
2023/08/06 01:48:44;;;;;;;11.82;8.40;;;;;;;23.92;55.00;100098.25;5094781;28;20093;-62
2023/08/06 01:51:09;;;;;;;11.80;7.68;;;;;;;23.94;55.01;100104.34;5094275;28;20024;-62
2023/08/06 01:53:35;;;;;;;12.52;7.55;;;;;;;23.85;55.04;100085.59;5092976;28;20031;-63
2023/08/06 01:56:00;;;;;;;12.35;7.57;;;;;;;23.87;54.89;100099.91;5094888;28;20119;-63
2023/08/06 01:58:26;;;;;;;13.45;7.40;;;;;;;23.93;54.73;100104.56;5078858;28;20031;-64
2023/08/06 02:00:51;;;;;;;12.75;7.63;;;;;;;24.03;54.99;100102.31;5093782;28;20111;-64
2023/08/06 02:03:17;;;;;;;13.52;7.28;;;;;;;24.01;54.76;100112.63;5094106;28;20050;-62
2023/08/06 02:05:42;;;;;;;12.90;8.13;;;;;;;24.08;54.68;100104.41;5094460;28;20040;-62
2023/08/06 02:08:08;;;;;;;13.88;7.97;;;;;;;24.06;54.56;100122.94;5093809;28;20123;-63
2023/08/06 02:10:34;;;;;;;13.80;7.68;;;;;;;23.84;54.67;100092.13;5093580;28;20036;-61
2023/08/06 02:13:00;;;;;;;10.30;7.68;;;;;;;24.02;54.96;100110.72;5094562;28;20122;-64
2023/08/06 02:15:25;;;;;;;11.30;7.38;;;;;;;23.85;54.57;100072.75;5094452;28;20032;-64
2023/08/06 02:17:51;;;;;;;14.35;7.32;;;;;;;24.07;54.63;100116.41;5093537;28;20027;-65
2023/08/06 02:20:36;;;;;;;16.63;7.35;;;;;;;24.08;54.43;100110.75;5079262;28;20040;-64
2023/08/06 02:23:02;;;;;;;12.35;7.63;;;;;;;24.12;54.73;100116.66;5094739;28;20047;-66
2023/08/06 02:25:27;;;;;;;11.30;7.45;;;;;;;24.11;54.64;100120.41;5094000;28;20442;-63
2023/08/06 02:27:53;;;;;;;12.93;7.20;;;;;;;24.21;54.45;100120.88;5076905;28;20103;-63
2023/08/06 02:30:18;;;;;;;9.20;6.85;;;;;;;24.17;54.46;100122.34;5093984;28;20035;-62
2023/08/06 02:32:44;;;;;;;11.10;7.07;;;;;;;24.21;54.50;100128.22;5075910;28;20035;-63
2023/08/06 02:35:09;;;;;;;11.77;6.90;;;;;;;24.20;54.34;100115.59;5093467;28;20429;-62
2023/08/06 02:37:35;;;;;;;13.13;7.25;;;;;;;24.29;54.15;100124.47;5076556;28;20391;-63
2023/08/06 02:40:01;;;;;;;14.93;7.57;;;;;;;24.38;53.87;100128.72;5081109;28;20422;-64
2023/08/06 02:42:30;;;;;;;9.98;6.72;;;;;;;24.39;53.90;100121.31;5093399;28;20086;-68
2023/08/06 02:44:55;;;;;;;9.77;7.10;;;;;;;24.37;53.79;100119.63;5094012;28;20438;-63
2023/08/06 02:47:21;;;;;;;9.38;6.78;;;;;;;24.44;53.59;100130.59;5092349;28;20032;-62
2023/08/06 02:49:46;;;;;;;10.23;6.85;;;;;;;24.45;53.86;100121.34;5093378;28;20346;-63
2023/08/06 02:52:12;;;;;;;10.93;6.97;;;;;;;24.55;53.61;100122.81;5093410;28;20058;-62
2023/08/06 02:54:38;;;;;;;14.40;7.07;;;;;;;24.56;53.08;100108.06;5093531;28;20036;-62
2023/08/06 02:57:05;;;;;;;16.88;7.00;;;;;;;24.65;53.37;100115.88;5092583;28;20074;-63
2023/08/06 02:59:30;;;;;;;11.68;6.38;;;;;;;24.70;53.05;100115.25;5092703;28;20028;-68
2023/08/06 03:01:56;;;;;;;13.00;6.95;;;;;;;24.78;52.92;100114.25;5093817;28;20050;-64
2023/08/06 03:04:21;;;;;;;11.90;6.90;;;;;;;24.85;53.07;100126.03;5092290;28;20042;-64
2023/08/06 03:06:48;;;;;;;12.65;6.60;;;;;;;24.92;52.73;100121.38;5091729;28;20023;-63
2023/08/06 03:09:14;;;;;;;13.50;6.97;;;;;;;24.98;52.10;100114.22;5075122;28;20047;-62
2023/08/06 03:11:39;;;;;;;9.63;7.05;;;;;;;25.04;52.12;100107.88;5091644;28;20316;-63
2023/08/06 03:14:05;;;;;;;11.38;7.53;;;;;;;25.15;51.54;100111.03;5091809;28;20028;-64
2023/08/06 03:16:30;;;;;;;11.73;7.00;;;;;;;25.23;51.39;100117.16;5092565;28;20434;-62
2023/08/06 03:18:56;;;;;;;13.93;6.97;;;;;;;25.28;51.77;100105.50;5092606;28;20059;-64
2023/08/06 03:21:21;;;;;;;11.80;6.95;;;;;;;25.40;51.20;100121.31;5091634;28;20401;-63
2023/08/06 03:23:48;;;;;;;12.73;7.28;;;;;;;25.48;50.96;100104.66;5091914;28;20066;-63
2023/08/06 03:26:14;;;;;;;12.45;6.93;;;;;;;25.54;50.98;100114.75;5092194;28;20429;-62
2023/08/06 03:28:39;;;;;;;12.55;7.00;;;;;;;25.63;50.68;100110.72;5092167;28;20382;-63
2023/08/06 03:31:05;;;;;;;9.77;7.47;;;;;;;25.70;50.27;100112.59;5091948;28;20024;-64
2023/08/06 03:33:31;;;;;;;12.93;6.95;;;;;;;25.55;50.48;100080.78;5091952;28;20114;-64
2023/08/06 03:35:56;;;;;;;13.40;6.90;;;;;;;25.82;50.41;100118.25;5092558;28;20032;-63
2023/08/06 03:38:22;;;;;;;10.02;6.63;;;;;;;25.81;49.97;100098.22;5092319;28;20036;-63
2023/08/06 03:40:48;;;;;;;11.65;8.15;;;;;;;26.07;49.66;100118.34;5091645;28;20024;-66
2023/08/06 03:43:14;;;;;;;16.65;7.80;;;;;;;26.23;49.09;100119.75;5058089;28;20461;-63
2023/08/06 03:45:40;;;;;;;13.07;7.68;;;;;;;26.22;49.04;100107.94;5074646;28;20028;-62
2023/08/06 03:48:06;;;;;;;13.80;7.53;;;;;;;26.69;48.33;100117.72;5092104;28;20032;-63
2023/08/06 03:50:31;;;;;;;9.90;7.32;;;;;;;27.40;45.93;100084.53;5092637;28;20047;-62
2023/08/06 03:52:57;;;;;;;13.50;7.22;;;;;;;28.59;43.41;100106.25;5091953;28;20119;-62
2023/08/06 03:55:22;;;;;;;13.25;7.57;;;;;;;29.58;41.22;100115.75;5074127;28;20035;-65
2023/08/06 03:57:48;;;;;;;11.18;7.50;;;;;;;30.56;39.42;100104.91;5075816;28;20105;-62
2023/08/06 04:00:13;;;;;;;8.43;6.55;;;;;;;31.60;37.06;100110.06;5092835;28;20351;-62
2023/08/06 04:02:39;;;;;;;9.73;6.70;;;;;;;32.52;35.12;100105.81;5091948;28;20032;-63
2023/08/06 04:05:05;;;;;;;13.35;6.47;;;;;;;33.45;33.61;100098.16;5074326;28;20374;-68
2023/08/06 04:07:30;;;;;;;17.45;6.80;;;;;;;34.26;31.72;100095.13;5075703;28;20020;-62
2023/08/06 04:10:01;;;;;;;8.95;6.32;;;;;;;35.22;31.06;100114.00;5092221;28;20047;-64
2023/08/06 04:12:28;;;;;;;11.02;6.25;;;;;;;35.91;29.48;100102.31;5092047;28;20126;-62
2023/08/06 04:14:54;;;;;;;11.85;6.68;;;;;;;36.52;28.03;100105.84;5073974;28;20158;-69
2023/08/06 04:17:20;;;;;;;11.85;6.47;;;;;;;37.28;27.40;100110.16;5075594;28;20020;-61
2023/08/06 04:19:50;;;;;;;12.18;6.63;;;;;;;38.00;26.53;100102.84;5092264;28;20463;-61
2023/08/06 04:22:16;;;;;;;12.38;7.32;;;;;;;38.72;25.15;100107.31;5091963;28;20028;-62
2023/08/06 04:24:43;;;;;;;12.75;6.38;;;;;;;39.22;24.58;100105.84;5091806;28;20039;-61
2023/08/06 04:27:09;;;;;;;15.27;6.90;;;;;;;39.49;24.09;100109.81;5075819;28;20054;-67
2023/08/06 04:29:35;;;;;;;14.77;6.88;;;;;;;40.24;23.14;100111.53;5074219;28;20105;-69
2023/08/06 04:32:02;;;;;;;10.82;6.78;;;;;;;40.79;22.27;100102.06;5091813;28;20471;-66
2023/08/06 04:34:27;;;;;;;15.45;6.88;;;;;;;41.14;22.25;100090.16;5060887;28;20024;-67
2023/08/06 04:36:53;;;;;;;10.45;6.90;;;;;;;41.23;21.74;100076.97;5095506;28;20024;-65
2023/08/06 04:39:18;;;;;;;9.68;6.45;;;;;;;41.68;21.59;100104.06;5095823;28;20089;-66
2023/08/06 04:41:44;;;;;;;10.18;6.45;;;;;;;42.35;20.76;100105.94;5094947;28;20370;-68
2023/08/06 04:44:09;;;;;;;10.25;6.78;;;;;;;43.00;19.87;100109.63;5095388;28;20035;-66
2023/08/06 04:46:35;;;;;;;10.43;6.90;;;;;;;43.57;19.03;100109.56;5095908;28;20116;-62
2023/08/06 04:49:00;;;;;;;10.45;6.18;;;;;;;43.65;19.28;100107.81;5095749;28;20032;-65
2023/08/06 04:51:26;;;;;;;12.13;6.47;;;;;;;43.76;19.22;100106.28;5094826;28;20579;-61
2023/08/06 04:53:51;;;;;;;11.70;6.72;;;;;;;43.94;18.91;100114.63;5095644;28;20128;-61
2023/08/06 04:56:17;;;;;;;10.93;6.63;;;;;;;44.13;18.24;100114.16;5095562;28;20028;-61
2023/08/06 04:58:42;;;;;;;10.48;7.00;;;;;;;44.30;18.40;100118.81;5095778;28;20039;-64
2023/08/06 05:01:08;;;;;;;12.02;6.50;;;;;;;44.51;17.81;100115.13;5077322;28;20053;-64
2023/08/06 05:03:33;;;;;;;9.07;5.95;;;;;;;44.67;17.68;100102.03;5095548;28;20081;-64
2023/08/06 05:05:59;;;;;;;12.35;6.35;;;;;;;44.97;17.19;100107.50;5077839;28;20035;-63
2023/08/06 05:08:24;;;;;;;11.90;6.18;;;;;;;45.24;17.77;100102.34;5095323;28;20124;-64
2023/08/06 05:10:50;;;;;;;8.45;5.72;;;;;;;45.49;16.91;100087.41;5094733;28;20110;-64
2023/08/06 05:13:15;;;;;;;10.90;6.43;;;;;;;45.70;17.09;100095.72;5095414;28;20032;-64
2023/08/06 05:15:42;;;;;;;11.50;6.20;;;;;;;46.10;16.60;100111.06;5094789;28;20043;-65
2023/08/06 05:18:10;;;;;;;10.13;6.20;;;;;;;46.64;15.89;100106.97;5095012;28;20097;-66
2023/08/06 05:20:37;;;;;;;10.18;5.85;;;;;;;46.94;15.98;100098.03;5094674;28;20047;-64
2023/08/06 05:23:03;;;;;;;11.35;5.22;;;;;;;47.35;15.13;100097.03;5094816;28;20032;-64
2023/08/06 05:25:28;;;;;;;11.02;5.65;;;;;;;47.81;14.81;100093.63;5095142;28;20028;-64
2023/08/06 05:27:53;;;;;;;9.82;5.35;;;;;;;48.18;14.72;100100.88;5094774;28;20031;-64
2023/08/06 05:30:19;;;;;;;12.50;5.85;;;;;;;48.57;14.38;100095.19;5094317;28;20063;-65
2023/08/06 05:32:44;;;;;;;10.10;4.78;;;;;;;49.01;13.98;100088.25;5094705;28;20105;-65
2023/08/06 05:35:10;;;;;;;10.43;5.00;;;;;;;49.41;13.67;100083.19;5094159;28;20020;-67
2023/08/06 05:37:35;;;;;;;9.02;5.82;;;;;;;49.44;13.58;100075.91;5094922;28;20032;-64
2023/08/06 05:40:02;;;;;;;6.18;5.07;;;;;;;49.85;13.40;100079.75;5094821;28;20038;-64
2023/08/06 05:42:31;;;;;;;11.13;5.35;;;;;;;50.11;13.09;100083.72;5093297;28;20070;-63
2023/08/06 05:44:56;;;;;;;9.07;4.95;;;;;;;50.44;12.68;100086.16;5092913;28;20060;-59
2023/08/06 05:47:22;;;;;;;11.07;5.15;;;;;;;50.97;12.32;100083.00;5094751;28;20419;-60
2023/08/06 05:49:47;;;;;;;10.15;5.63;;;;;;;51.34;12.13;100080.41;5094169;28;20088;-61
2023/08/06 05:52:13;;;;;;;10.98;5.50;;;;;;;51.47;11.77;100084.59;5094269;28;20082;-60
2023/08/06 05:54:40;;;;;;;8.15;5.00;;;;;;;51.79;11.23;100080.28;5094687;28;20024;-60
2023/08/06 05:57:06;;;;;;;8.25;4.95;;;;;;;52.14;11.09;100072.25;5076965;28;20044;-58
2023/08/06 05:59:31;;;;;;;10.68;5.90;;;;;;;52.56;11.29;100079.28;5093778;28;20146;-61
2023/08/06 06:01:57;;;;;;;9.80;5.13;;;;;;;52.92;10.97;100067.03;5094362;28;20035;-62
2023/08/06 06:04:22;;;;;;;12.48;5.50;;;;;;;53.14;10.48;100059.28;5094414;28;20110;-62
2023/08/06 06:06:48;;;;;;;9.00;5.55;;;;;;;53.51;10.13;100078.00;5075994;28;20035;-59
2023/08/06 06:09:14;;;;;;;13.10;5.63;;;;;;;53.47;10.41;100087.84;5093957;28;20132;-60
2023/08/06 06:11:39;;;;;;;9.55;5.53;;;;;;;53.55;9.98;100071.47;5094028;28;20040;-60
2023/08/06 06:14:05;;;;;;;8.07;5.25;;;;;;;53.69;9.70;100068.53;5094447;28;20454;-58
2023/08/06 06:16:30;;;;;;;12.73;5.65;;;;;;;53.84;9.58;100069.31;5093201;28;20032;-59
2023/08/06 06:18:57;;;;;;;7.40;5.20;;;;;;;54.16;9.39;100073.25;5093584;28;20496;-59
2023/08/06 06:21:24;;;;;;;6.82;4.68;;;;;;;54.21;9.30;100081.41;5093899;28;20031;-62
2023/08/06 06:23:51;;;;;;;9.68;4.95;;;;;;;54.45;8.99;100067.34;5094258;28;20028;-60
2023/08/06 06:26:18;;;;;;;8.98;5.15;;;;;;;54.64;9.29;100071.72;5075790;28;20028;-60
2023/08/06 06:28:43;;;;;;;8.95;5.30;;;;;;;55.25;8.82;100069.53;5093448;28;20028;-58
2023/08/06 06:31:09;;;;;;;6.38;5.68;;;;;;;55.49;8.63;100059.00;5093568;28;20453;-61
2023/08/06 06:33:35;;;;;;;9.70;5.10;;;;;;;55.75;8.68;100071.84;5094046;28;20070;-60
2023/08/06 06:36:03;;;;;;;8.02;5.28;;;;;;;56.02;7.94;100064.50;5092801;28;20443;-66
2023/08/06 06:38:28;;;;;;;10.07;5.68;;;;;;;56.01;8.08;100049.34;5091468;28;20031;-66
2023/08/06 06:40:55;;;;;;;6.03;5.10;;;;;;;55.74;8.05;100067.34;5092912;28;20028;-67
2023/08/06 06:43:20;;;;;;;8.02;5.65;;;;;;;55.71;8.44;100059.59;5093828;28;20119;-67
2023/08/06 06:45:46;;;;;;;9.82;5.97;;;;;;;55.89;7.96;100044.16;5089021;28;20514;-64
2023/08/06 06:48:11;;;;;;;7.30;5.05;;;;;;;55.89;8.46;100053.59;5074360;28;20117;-65
2023/08/06 06:50:39;;;;;;;10.87;5.30;;;;;;;55.26;8.60;100049.00;5076625;28;20085;-67
2023/08/06 06:53:04;;;;;;;8.90;5.28;;;;;;;55.66;8.37;100051.41;5084644;28;20255;-65
2023/08/06 06:55:30;;;;;;;8.93;5.68;;;;;;;56.80;7.83;100055.09;5092097;28;20471;-64
2023/08/06 06:57:55;;;;;;;7.78;5.90;;;;;;;57.59;7.33;100058.53;5092458;28;20429;-65
2023/08/06 07:00:21;;;;;;;7.57;6.30;;;;;;;57.99;6.65;100054.78;5092914;28;20038;-68
2023/08/06 07:02:46;;;;;;;6.47;5.87;;;;;;;58.54;6.77;100051.41;5073941;28;20084;-54
2023/08/06 07:05:12;;;;;;;6.95;6.15;;;;;;;59.01;5.97;100058.03;5091781;28;20260;-59
2023/08/06 07:07:37;;;;;;;8.18;6.13;;;;;;;59.50;5.61;100053.38;5092040;28;21270;-59
2023/08/06 07:10:03;;;;;;;6.88;6.30;;;;;;;59.05;5.76;100055.84;5092793;28;20032;-60
2023/08/06 07:12:29;;;;;;;9.15;6.50;;;;;;;58.80;6.02;100060.22;5092199;28;20123;-60
2023/08/06 07:14:55;;;;;;;8.67;6.77;;;;;;;58.58;5.93;100055.03;5092429;28;20043;-60
2023/08/06 07:17:20;;;;;;;7.70;7.05;;;;;;;58.08;6.21;100041.81;5072261;28;20268;-56
2023/08/06 07:19:46;;;;;;;7.87;6.83;;;;;;;58.20;6.58;100041.94;5072295;28;20036;-59
2023/08/06 07:22:11;;;;;;;7.18;6.47;;;;;;;58.59;6.36;100039.34;5088724;28;20285;-56
2023/08/06 07:24:37;;;;;;;7.40;6.40;;;;;;;58.27;5.99;100046.72;5091618;28;20028;-55
2023/08/06 07:27:02;;;;;;;7.37;5.93;;;;;;;57.61;6.94;100044.50;5092876;28;20165;-52
2023/08/06 07:29:28;;;;;;;7.07;6.22;;;;;;;58.03;6.50;100035.34;5092633;28;20252;-58
2023/08/06 07:31:55;;;;;;;7.20;6.63;;;;;;;58.68;6.33;100032.13;5091922;28;20035;-56
2023/08/06 07:34:21;;;;;;;7.70;6.45;;;;;;;59.09;6.00;100038.44;5092730;28;20278;-56
2023/08/06 07:36:47;;;;;;;8.10;7.40;;;;;;;59.37;6.27;100033.94;5092282;28;20038;-61
2023/08/06 07:39:12;;;;;;;7.45;6.95;;;;;;;59.49;5.41;100043.94;5092784;28;20292;-58
2023/08/06 07:41:38;;;;;;;9.00;8.27;;;;;;;59.95;5.98;100043.75;5074814;28;20038;-61
2023/08/06 07:44:04;;;;;;;8.85;8.05;;;;;;;60.21;5.04;100032.19;5092699;28;20028;-65
2023/08/06 07:46:30;;;;;;;9.30;8.52;;;;;;;60.61;5.47;100036.63;5092332;28;20042;-61
2023/08/06 07:48:55;;;;;;;9.48;8.70;;;;;;;60.22;5.44;100022.25;5092583;28;20165;-60
2023/08/06 07:51:21;;;;;;;10.68;9.77;;;;;;;59.57;6.00;100030.06;5092144;28;20054;-60
2023/08/06 07:53:46;;;;;;;10.48;8.85;;;;;;;58.76;6.52;100033.56;5091567;28;20036;-68
2023/08/06 07:56:12;;;;;;;9.45;8.77;;;;;;;58.33;6.38;100018.97;5092051;28;20050;-60
2023/08/06 07:58:37;;;;;;;8.85;7.97;;;;;;;58.24;6.56;100041.88;5092067;28;20043;-61
2023/08/06 08:01:03;;;;;;;8.30;7.07;;;;;;;57.89;6.65;100021.25;5072500;28;20032;-61
2023/08/06 08:03:29;;;;;;;10.70;8.45;;;;;;;57.16;7.26;100040.06;5071835;28;20111;-60
2023/08/06 08:05:58;;;;;;;7.32;6.72;;;;;;;56.38;7.44;100034.44;5072160;28;20067;-61
2023/08/06 08:08:24;;;;;;;7.47;6.75;;;;;;;55.89;8.29;100029.78;5084779;28;20056;-63
2023/08/06 08:10:50;;;;;;;6.90;6.18;;;;;;;55.66;8.33;100016.97;5083328;28;20059;-61
2023/08/06 08:13:15;;;;;;;6.47;5.88;;;;;;;55.62;8.34;100019.06;5088925;28;20078;-61
2023/08/06 08:15:41;;;;;;;8.65;5.60;;;;;;;54.61;8.65;100010.31;5086938;28;20451;-62
2023/08/06 08:18:06;;;;;;;6.28;4.60;;;;;;;53.77;9.42;100006.38;5084622;28;20040;-61
2023/08/06 08:20:32;;;;;;;9.77;4.80;;;;;;;52.03;10.38;100001.66;5088746;28;20466;-61
2023/08/06 08:23:00;;;;;;;6.63;4.28;;;;;;;49.30;12.44;99991.22;5095256;28;20040;-61
2023/08/06 08:25:26;;;;;;;3.45;3.15;;;;;;;46.71;14.41;99996.69;5095783;28;20036;-60
2023/08/06 08:27:53;;;;;;;6.50;3.28;;;;;;;44.38;16.29;99998.56;5096223;28;20034;-61
2023/08/06 08:30:18;;;;;;;5.78;3.58;;;;;;;42.38;18.17;99996.38;5095453;28;20039;-69
2023/08/06 08:32:44;;;;;;;5.25;3.25;;;;;;;40.73;20.79;99991.91;5077993;28;20036;-60
2023/08/06 08:35:12;;;;;;;4.95;3.70;;;;;;;39.80;22.14;99999.84;5095526;28;20049;-60
2023/08/06 08:37:37;;;;;;;6.53;4.22;;;;;;;39.10;23.07;99994.38;5095445;28;20034;-60
2023/08/06 08:40:03;;;;;;;7.50;4.47;;;;;;;38.52;24.22;99990.19;5095791;28;20028;-62
2023/08/06 08:42:30;;;;;;;6.18;4.63;;;;;;;38.04;24.49;99972.53;5094958;28;20039;-61
2023/08/06 08:44:56;;;;;;;8.48;4.50;;;;;;;37.51;25.44;99987.59;5094813;28;20027;-61
2023/08/06 08:47:24;;;;;;;8.02;4.57;;;;;;;36.96;26.78;99992.44;5095872;28;20032;-61
2023/08/06 08:49:54;;;;;;;8.07;4.85;;;;;;;36.40;27.67;99997.44;5095554;28;20043;-65
2023/08/06 08:52:21;;;;;;;9.60;4.88;;;;;;;35.91;28.02;99963.84;5085452;28;20506;-64
2023/08/06 08:54:51;;;;;;;10.32;5.22;;;;;;;35.85;28.50;99984.53;5093334;28;20362;-63
2023/08/06 08:57:17;;;;;;;10.95;5.32;;;;;;;35.69;29.15;99991.31;5095023;28;20032;-59
2023/08/06 08:59:43;;;;;;;6.07;5.18;;;;;;;35.46;29.55;99985.31;5095193;28;20032;-58
2023/08/06 09:02:12;;;;;;;6.35;5.03;;;;;;;35.26;29.73;99992.66;5094876;28;20060;-60
2023/08/06 09:04:39;;;;;;;6.03;4.97;;;;;;;34.85;30.92;99998.34;5094873;28;20354;-60
2023/08/06 09:07:07;;;;;;;10.68;4.68;;;;;;;34.63;31.21;99986.44;5094622;28;20031;-61
2023/08/06 09:09:37;;;;;;;10.23;5.30;;;;;;;34.47;31.33;99988.38;5094941;28;20048;-62
2023/08/06 09:12:12;;;;;;;12.43;4.97;;;;;;;34.36;31.12;99992.28;5095382;28;20068;-60
2023/08/06 09:14:37;;;;;;;8.05;5.03;;;;;;;34.12;32.72;99978.97;5095572;28;20470;-60
2023/08/06 09:17:05;;;;;;;8.57;4.88;;;;;;;34.25;31.97;99990.63;5084051;28;20024;-61
2023/08/06 09:19:31;;;;;;;9.00;5.25;;;;;;;34.29;32.38;99994.53;5094872;28;20036;-59
2023/08/06 09:21:57;;;;;;;8.68;5.38;;;;;;;34.41;32.09;99981.16;5095036;28;20118;-60
2023/08/06 09:24:23;;;;;;;9.57;5.18;;;;;;;34.55;31.67;99980.63;5094459;28;20560;-60
2023/08/06 09:26:48;;;;;;;8.27;4.90;;;;;;;34.57;31.97;99964.50;5095070;28;20028;-61
2023/08/06 09:29:14;;;;;;;9.73;5.10;;;;;;;34.69;31.48;99972.53;5094545;28;20032;-60
2023/08/06 09:31:45;;;;;;;7.38;4.78;;;;;;;34.90;30.96;99968.56;5076962;28;20054;-60
2023/08/06 09:34:12;;;;;;;9.60;5.40;;;;;;;34.88;31.42;99992.22;5094860;28;20032;-61
2023/08/06 09:36:42;;;;;;;9.85;5.38;;;;;;;34.71;31.49;99971.09;5094222;28;20027;-69
2023/08/06 09:39:14;;;;;;;7.50;4.93;;;;;;;34.63;31.37;99977.25;5093796;28;20466;-61
2023/08/06 09:41:39;;;;;;;9.43;4.97;;;;;;;34.54;32.09;99959.50;5093937;28;20506;-60
2023/08/06 09:44:05;;;;;;;10.00;5.50;;;;;;;34.54;31.97;99965.06;5095000;28;20032;-62
2023/08/06 09:46:32;;;;;;;5.68;5.15;;;;;;;34.52;31.93;99962.53;5094826;28;20451;-61
2023/08/06 09:48:58;;;;;;;9.35;5.40;;;;;;;34.55;31.71;99959.19;5094643;28;20024;-62
2023/08/06 09:51:24;;;;;;;12.57;4.93;;;;;;;34.47;31.63;99955.00;5094441;28;20036;-61
2023/08/06 09:53:51;;;;;;;6.50;5.18;;;;;;;34.53;31.76;99963.41;5079221;28;20110;-67
2023/08/06 09:56:17;;;;;;;8.50;4.70;;;;;;;34.60;31.40;99963.94;5076927;28;20035;-61
2023/08/06 09:58:44;;;;;;;11.55;5.05;;;;;;;34.66;31.42;99957.22;5076045;28;20465;-64
2023/08/06 10:01:10;;;;;;;6.07;5.43;;;;;;;34.69;31.49;99945.53;5075582;28;20165;-59
2023/08/06 10:03:36;;;;;;;9.60;5.05;;;;;;;34.68;31.31;99949.44;5077049;28;20028;-60
2023/08/06 10:06:06;;;;;;;13.35;4.90;;;;;;;34.66;31.30;99940.53;5094606;28;20035;-61
2023/08/06 10:08:32;;;;;;;6.10;4.80;;;;;;;34.74;31.51;99926.09;5094620;28;20052;-61
2023/08/06 10:10:58;;;;;;;8.15;4.68;;;;;;;34.63;31.40;99930.84;5094345;28;20035;-61
2023/08/06 10:13:24;;;;;;;7.90;5.35;;;;;;;34.70;31.57;99932.47;5095034;28;20036;-61
2023/08/06 10:15:51;;;;;;;10.02;4.78;;;;;;;34.53;31.85;99928.06;5077559;28;20414;-66
2023/08/06 10:18:21;;;;;;;9.18;5.38;;;;;;;34.27;32.44;99900.31;5094333;28;20035;-60
2023/08/06 10:20:47;;;;;;;7.53;4.90;;;;;;;34.25;32.85;99933.09;5094268;28;20453;-62
2023/08/06 10:23:13;;;;;;;12.35;5.43;;;;;;;34.07;32.47;99918.69;5094024;28;20039;-62
2023/08/06 10:25:42;;;;;;;8.73;5.25;;;;;;;34.20;32.53;99922.00;5093515;28;20032;-59
2023/08/06 10:28:09;;;;;;;5.85;5.25;;;;;;;34.15;33.26;99910.91;5093936;28;20028;-59
2023/08/06 10:30:43;;;;;;;6.97;5.28;;;;;;;34.19;32.88;99921.16;5093259;28;20480;-58
2023/08/06 10:33:09;;;;;;;11.45;5.25;;;;;;;33.93;32.95;99890.59;5093848;28;20035;-58
2023/08/06 10:35:40;;;;;;;6.72;4.85;;;;;;;33.97;33.32;99924.25;5094133;28;20032;-61
2023/08/06 10:38:14;;;;;;;8.13;5.93;;;;;;;34.04;32.80;99918.41;5093842;28;20081;-59
2023/08/06 10:40:48;;;;;;;11.82;5.68;;;;;;;33.95;33.53;99920.88;5093708;28;20075;-60
2023/08/06 10:43:29;;;;;;;6.60;5.60;;;;;;;34.22;32.72;99919.78;5093767;28;20035;-57
2023/08/06 10:45:56;;;;;;;6.47;5.18;;;;;;;33.95;33.31;99903.38;5093728;28;20046;-57
2023/08/06 10:48:38;;;;;;;8.23;5.80;;;;;;;34.11;33.26;99907.84;5093439;28;20081;-59
2023/08/06 10:51:09;;;;;;;8.70;5.10;;;;;;;34.15;32.92;99908.94;5072907;28;20093;-59
2023/08/06 10:53:35;;;;;;;7.07;5.25;;;;;;;34.01;33.61;99907.88;5055733;28;20089;-64
2023/08/06 10:56:02;;;;;;;9.00;5.50;;;;;;;33.85;33.33;99905.06;5073047;28;20439;-59
2023/08/06 10:58:34;;;;;;;11.07;5.53;;;;;;;33.90;33.54;99907.00;5074819;28;20043;-62
2023/08/06 11:01:00;;;;;;;8.20;5.80;;;;;;;33.72;33.78;99917.56;5092900;28;20385;-56
2023/08/06 11:03:27;;;;;;;8.40;5.50;;;;;;;33.74;33.61;99920.03;5093311;28;20093;-58
2023/08/06 11:05:52;;;;;;;11.15;5.80;;;;;;;33.60;33.63;99914.19;5093603;28;20024;-63
2023/08/06 11:08:29;;;;;;;8.43;5.93;;;;;;;33.52;33.75;99885.06;5093334;28;20432;-59
2023/08/06 11:10:55;;;;;;;8.35;5.55;;;;;;;33.56;33.88;99918.63;5093206;28;20111;-61
2023/08/06 11:13:21;;;;;;;9.10;5.28;;;;;;;33.52;34.00;99900.88;5092891;28;20036;-60
2023/08/06 11:15:47;;;;;;;9.40;5.65;;;;;;;33.53;33.88;99889.50;5093217;28;20036;-60
2023/08/06 11:18:13;;;;;;;8.18;5.82;;;;;;;33.68;34.00;99910.03;5092556;28;20054;-61
2023/08/06 11:20:39;;;;;;;6.25;5.68;;;;;;;33.81;33.71;99895.63;5086435;28;20047;-58